Air Navigation Services of Czech Republic
Airport: LKBC Updated:  01.04.2020 00:58:26  UTC
 METAR LKBC 01.04. 01:00 ...
METAR LKBC 010100Z AUTO 00000KT CAVOK M04/M07 Q1024=